createdAt,value
2024-01-01T00:01:57.926Z,70.07
2024-01-01T00:04:27.464Z,84.70
2024-01-01T00:06:54.463Z,55.73
2024-01-01T00:09:21.418Z,94.23
2024-01-01T00:11:48.337Z,53.27
2024-01-01T00:14:15.303Z,46.10
2024-01-01T00:16:42.531Z,38.30
2024-01-01T00:19:09.604Z,32.77
2024-01-01T00:21:36.677Z,28.00
2024-01-01T00:24:03.915Z,26.87
2024-01-01T00:26:30.837Z,26.83
2024-01-01T00:29:01.377Z,27.30
2024-01-01T00:31:28.382Z,27.60
2024-01-01T00:33:55.601Z,24.73
2024-01-01T00:36:22.564Z,24.93
2024-01-01T00:38:51.610Z,18.70
2024-01-01T00:41:18.672Z,17.57
2024-01-01T00:43:45.775Z,16.87
2024-01-01T00:46:12.901Z,14.83
2024-01-01T00:48:40.020Z,13.70
2024-01-01T00:51:07.048Z,15.17
2024-01-01T00:53:34.801Z,15.03
2024-01-01T00:56:01.893Z,16.83
2024-01-01T00:58:28.909Z,12.63
2024-01-01T01:00:57.505Z,13.60
2024-01-01T01:03:24.765Z,13.50
2024-01-01T01:05:52.087Z,14.00
2024-01-01T01:08:19.286Z,15.10
2024-01-01T01:10:46.740Z,16.10
2024-01-01T01:13:13.756Z,13.10
2024-01-01T01:15:40.997Z,14.90
2024-01-01T01:18:08.803Z,13.93
2024-01-01T01:20:35.990Z,12.67
2024-01-01T01:23:02.934Z,11.10
2024-01-01T01:25:30.328Z,10.43
2024-01-01T01:27:57.408Z,10.30
2024-01-01T01:30:24.485Z,14.50
2024-01-01T01:32:51.564Z,19.43
2024-01-01T01:35:18.521Z,10.23
2024-01-01T01:37:45.791Z,10.47
2024-01-01T01:40:13.056Z,9.70
2024-01-01T01:42:40.000Z,9.83
2024-01-01T01:45:07.661Z,10.27
2024-01-01T01:47:34.757Z,9.90
2024-01-01T01:50:01.820Z,11.70
2024-01-01T01:52:28.892Z,11.10
2024-01-01T01:54:56.866Z,13.47
2024-01-01T01:57:24.818Z,10.63
2024-01-01T01:59:52.053Z,11.17
2024-01-01T02:02:23.883Z,10.80
2024-01-01T02:04:54.168Z,14.80
2024-01-01T02:07:22.176Z,10.00
2024-01-01T02:09:49.216Z,10.33
2024-01-01T02:12:16.111Z,9.87
2024-01-01T02:14:43.060Z,11.23
2024-01-01T02:17:10.017Z,10.67
2024-01-01T02:19:39.037Z,9.50
2024-01-01T02:22:06.154Z,9.83
2024-01-01T02:24:33.209Z,10.83
2024-01-01T02:27:00.271Z,11.20
2024-01-01T02:29:27.767Z,11.27
2024-01-01T02:31:54.789Z,11.30
2024-01-01T02:34:23.181Z,10.50
2024-01-01T02:36:50.109Z,10.00
2024-01-01T02:39:17.040Z,11.87
2024-01-01T02:41:43.972Z,12.13
2024-01-01T02:44:11.033Z,10.67
2024-01-01T02:46:38.169Z,11.87
2024-01-01T02:49:05.123Z,12.40
2024-01-01T02:51:32.036Z,12.03
2024-01-01T02:53:59.426Z,11.00
2024-01-01T02:56:26.448Z,11.47
2024-01-01T02:58:55.108Z,12.20
2024-01-01T03:01:22.192Z,12.87
2024-01-01T03:03:49.959Z,11.97
2024-01-01T03:06:20.623Z,12.10
2024-01-01T03:08:48.338Z,12.37
2024-01-01T03:11:15.844Z,12.90
2024-01-01T03:13:43.217Z,12.50
2024-01-01T03:16:10.172Z,12.50
2024-01-01T03:18:37.346Z,13.23
2024-01-01T03:21:04.907Z,13.23
2024-01-01T03:23:32.025Z,14.03
2024-01-01T03:25:59.139Z,13.93
2024-01-01T03:28:26.170Z,13.20
2024-01-01T03:30:53.328Z,13.53
2024-01-01T03:33:20.497Z,14.20
2024-01-01T03:35:47.536Z,15.13
2024-01-01T03:38:14.463Z,15.80
2024-01-01T03:40:41.809Z,14.90
2024-01-01T03:43:08.920Z,15.37
2024-01-01T03:45:36.728Z,14.90
2024-01-01T03:48:04.383Z,13.90
2024-01-01T03:50:31.493Z,14.73
2024-01-01T03:52:58.528Z,15.87
2024-01-01T03:55:25.656Z,14.63
2024-01-01T03:57:52.590Z,16.83
2024-01-01T04:00:19.600Z,16.50
2024-01-01T04:02:47.865Z,15.10
2024-01-01T04:05:15.051Z,14.10
2024-01-01T04:07:42.244Z,16.90
2024-01-01T04:10:10.643Z,15.47
2024-01-01T04:12:38.399Z,14.90
2024-01-01T04:15:06.235Z,15.10
2024-01-01T04:17:34.210Z,15.83
2024-01-01T04:20:01.288Z,15.10
2024-01-01T04:22:29.472Z,15.90
2024-01-01T04:24:56.422Z,14.73
2024-01-01T04:27:23.353Z,14.20
2024-01-01T04:29:50.253Z,14.70
2024-01-01T04:32:17.276Z,14.10
2024-01-01T04:34:44.301Z,14.10
2024-01-01T04:37:11.243Z,13.77
2024-01-01T04:39:38.143Z,14.77
2024-01-01T04:42:05.344Z,12.80
2024-01-01T04:44:32.329Z,15.67
2024-01-01T04:46:59.453Z,14.70
2024-01-01T04:49:26.440Z,14.70
2024-01-01T04:51:53.433Z,16.00
2024-01-01T04:54:20.590Z,14.50
2024-01-01T04:56:47.576Z,14.40
2024-01-01T04:59:14.690Z,13.60
2024-01-01T05:01:41.830Z,17.87
2024-01-01T05:04:08.849Z,15.00
2024-01-01T05:06:35.793Z,13.97
2024-01-01T05:09:02.722Z,12.60
2024-01-01T05:11:31.023Z,14.90
2024-01-01T05:13:58.037Z,15.60
2024-01-01T05:16:25.045Z,12.87
2024-01-01T05:18:52.081Z,14.50
2024-01-01T05:21:19.035Z,13.83
2024-01-01T05:23:45.937Z,13.90
2024-01-01T05:26:12.976Z,13.53
2024-01-01T05:28:39.970Z,12.90
2024-01-01T05:31:07.018Z,13.30
2024-01-01T05:33:34.313Z,13.20
2024-01-01T05:36:01.264Z,13.20
2024-01-01T05:38:28.247Z,12.00
2024-01-01T05:40:55.232Z,13.77
2024-01-01T05:43:25.438Z,13.77
2024-01-01T05:45:52.357Z,12.90
2024-01-01T05:48:26.468Z,11.73
2024-01-01T05:50:57.046Z,13.30
2024-01-01T05:53:23.983Z,12.50
2024-01-01T05:55:51.256Z,11.33
2024-01-01T05:58:18.404Z,11.83
2024-01-01T06:00:46.119Z,12.37
2024-01-01T06:03:13.179Z,11.80
2024-01-01T06:05:40.262Z,12.37
2024-01-01T06:08:07.645Z,11.97
2024-01-01T06:10:35.733Z,11.00
2024-01-01T06:13:03.727Z,11.23
2024-01-01T06:15:30.802Z,12.23
2024-01-01T06:17:58.000Z,11.70
2024-01-01T06:20:25.157Z,11.17
2024-01-01T06:22:52.122Z,11.70
2024-01-01T06:25:19.299Z,12.20
2024-01-01T06:27:46.358Z,12.73
2024-01-01T06:30:13.419Z,10.73
2024-01-01T06:32:40.490Z,10.90
2024-01-01T06:35:07.804Z,11.77
2024-01-01T06:37:34.918Z,9.80
2024-01-01T06:40:02.260Z,10.40
2024-01-01T06:42:29.149Z,11.57
2024-01-01T06:45:01.343Z,9.53
2024-01-01T06:47:28.564Z,10.63
2024-01-01T06:49:56.001Z,10.10
2024-01-01T06:52:23.050Z,9.73
2024-01-01T06:54:49.944Z,10.20
2024-01-01T06:57:16.843Z,10.27
2024-01-01T06:59:43.847Z,9.70
2024-01-01T07:02:10.862Z,10.60
2024-01-01T07:04:37.956Z,10.33
2024-01-01T07:07:05.044Z,10.30
2024-01-01T07:09:32.222Z,11.20
2024-01-01T07:11:59.234Z,11.30
2024-01-01T07:14:26.353Z,11.53
2024-01-01T07:16:54.967Z,11.40
2024-01-01T07:19:22.318Z,11.37
2024-01-01T07:21:49.915Z,9.83
2024-01-01T07:24:16.870Z,12.33
2024-01-01T07:26:43.813Z,10.87
2024-01-01T07:29:10.750Z,10.10
2024-01-01T07:31:37.765Z,10.23
2024-01-01T07:34:04.966Z,11.17
2024-01-01T07:36:31.935Z,11.50
2024-01-01T07:38:58.829Z,11.73
2024-01-01T07:41:25.765Z,10.70
2024-01-01T07:43:52.879Z,12.30
2024-01-01T07:46:20.687Z,11.80
2024-01-01T07:48:47.677Z,14.40
2024-01-01T07:51:14.764Z,11.10
2024-01-01T07:53:43.486Z,12.60
2024-01-01T07:56:10.539Z,12.67
2024-01-01T07:58:37.784Z,13.23
2024-01-01T08:01:04.981Z,11.90
2024-01-01T08:03:32.007Z,12.53
2024-01-01T08:05:59.144Z,12.50
2024-01-01T08:08:26.257Z,13.83
2024-01-01T08:10:54.556Z,12.43
2024-01-01T08:13:21.625Z,13.30
2024-01-01T08:15:48.612Z,14.67
2024-01-01T08:18:15.633Z,14.80
2024-01-01T08:20:42.672Z,15.57
2024-01-01T08:23:09.664Z,15.87
2024-01-01T08:25:36.940Z,14.07
2024-01-01T08:28:04.514Z,14.07
2024-01-01T08:30:31.908Z,14.13
2024-01-01T08:32:59.672Z,14.70
2024-01-01T08:35:26.645Z,14.53
2024-01-01T08:37:54.322Z,14.17
2024-01-01T08:40:21.265Z,12.80
2024-01-01T08:42:48.575Z,13.70
2024-01-01T08:45:17.237Z,13.23
2024-01-01T08:47:44.154Z,14.10
2024-01-01T08:50:11.495Z,14.07
2024-01-01T08:52:38.499Z,14.93
2024-01-01T08:55:06.310Z,14.43
2024-01-01T08:57:33.252Z,14.67
2024-01-01T09:00:00.225Z,13.33
2024-01-01T09:02:27.206Z,14.80
2024-01-01T09:04:54.258Z,14.30
2024-01-01T09:07:21.944Z,14.23
2024-01-01T09:09:48.874Z,14.97
2024-01-01T09:12:15.799Z,13.80
2024-01-01T09:14:42.818Z,13.20
2024-01-01T09:17:09.883Z,13.30
2024-01-01T09:19:38.727Z,13.83
2024-01-01T09:22:05.795Z,13.80
2024-01-01T09:24:32.782Z,16.40
2024-01-01T09:27:00.314Z,15.23
2024-01-01T09:29:27.422Z,14.27
2024-01-01T09:31:54.488Z,13.13
2024-01-01T09:34:21.429Z,15.43
2024-01-01T09:36:57.287Z,14.07
2024-01-01T09:39:30.109Z,17.27
2024-01-01T09:41:57.020Z,16.67
2024-01-01T09:44:24.318Z,14.50
2024-01-01T09:46:51.349Z,13.80
2024-01-01T09:49:18.372Z,12.17
2024-01-01T09:51:45.363Z,12.53
2024-01-01T09:54:12.308Z,13.73
2024-01-01T09:56:39.224Z,13.97
2024-01-01T09:59:06.198Z,13.20
2024-01-01T10:01:34.358Z,12.40
2024-01-01T10:04:08.564Z,12.97
2024-01-01T10:06:37.627Z,11.90
2024-01-01T10:09:12.000Z,12.43
2024-01-01T10:11:42.242Z,10.73
2024-01-01T10:14:11.008Z,11.20
2024-01-01T10:16:39.509Z,11.63
2024-01-01T10:19:07.851Z,10.73
2024-01-01T10:21:36.863Z,11.93
2024-01-01T10:24:26.643Z,11.20
2024-01-01T10:27:02.135Z,10.37
2024-01-01T10:29:29.790Z,13.10
2024-01-01T10:31:57.104Z,11.77
2024-01-01T10:34:24.847Z,10.67
2024-01-01T10:36:52.194Z,10.27
2024-01-01T10:39:20.019Z,10.00
2024-01-01T10:41:50.378Z,10.17
2024-01-01T10:44:17.397Z,9.80
2024-01-01T10:46:48.446Z,10.30
2024-01-01T10:49:25.098Z,10.50
2024-01-01T10:52:26.677Z,10.40
2024-01-01T10:55:41.867Z,10.43
2024-01-01T10:58:44.742Z,10.07
2024-01-01T11:01:16.524Z,9.90
2024-01-01T11:03:49.154Z,7.73
2024-01-01T11:06:33.233Z,8.67
2024-01-01T11:09:22.288Z,8.57
2024-01-01T11:11:56.691Z,9.27
2024-01-01T11:14:43.251Z,8.83
2024-01-01T11:17:12.040Z,9.00
2024-01-01T11:19:44.458Z,8.50
2024-01-01T11:22:30.863Z,9.07
2024-01-01T11:25:01.753Z,8.80
2024-01-01T11:27:35.446Z,8.60
2024-01-01T11:30:08.138Z,9.53
2024-01-01T11:32:39.208Z,9.83
2024-01-01T11:35:19.104Z,13.93
2024-01-01T11:37:47.230Z,10.07
2024-01-01T11:40:14.655Z,13.83
2024-01-01T11:42:42.603Z,8.67
2024-01-01T11:45:11.550Z,10.13
2024-01-01T11:47:40.165Z,8.83
2024-01-01T11:50:09.254Z,8.73
2024-01-01T11:52:36.632Z,9.27
2024-01-01T11:55:04.018Z,8.70
2024-01-01T11:57:31.296Z,10.43
2024-01-01T11:59:58.425Z,10.77
2024-01-01T12:02:26.034Z,10.90
2024-01-01T12:04:55.469Z,9.23
2024-01-01T12:07:34.063Z,8.30
2024-01-01T12:10:04.415Z,9.40
2024-01-01T12:12:31.364Z,10.00
2024-01-01T12:15:18.180Z,8.70
2024-01-01T12:17:46.712Z,9.17
2024-01-01T12:20:19.955Z,8.00
2024-01-01T12:22:49.794Z,7.30
2024-01-01T12:25:19.890Z,7.27
2024-01-01T12:28:04.111Z,8.43
2024-01-01T12:30:31.645Z,6.80
2024-01-01T12:32:59.134Z,6.63
2024-01-01T12:35:26.573Z,9.40
2024-01-01T12:37:54.020Z,9.70
2024-01-01T12:40:21.372Z,8.50
2024-01-01T12:42:48.610Z,8.13
2024-01-01T12:45:15.656Z,12.77
2024-01-01T12:47:43.114Z,13.27
2024-01-01T12:50:10.983Z,11.93
2024-01-01T12:52:39.559Z,9.40
2024-01-01T12:55:06.929Z,8.53
2024-01-01T12:57:34.003Z,7.43
2024-01-01T13:00:01.413Z,8.60
2024-01-01T13:02:28.393Z,8.03
2024-01-01T13:04:55.472Z,8.20
2024-01-01T13:07:23.069Z,8.03
2024-01-01T13:09:50.065Z,6.77
2024-01-01T13:12:17.994Z,7.30
2024-01-01T13:14:45.156Z,8.10
2024-01-01T13:17:13.107Z,10.30
2024-01-01T13:19:40.385Z,8.53
2024-01-01T13:22:09.089Z,8.00
2024-01-01T13:24:37.105Z,7.27
2024-01-01T13:27:04.320Z,7.23
2024-01-01T13:29:31.725Z,7.17
2024-01-01T13:31:58.889Z,6.30
2024-01-01T13:34:26.031Z,6.73
2024-01-01T13:36:53.099Z,9.27
2024-01-01T13:39:20.134Z,15.07
2024-01-01T13:41:47.739Z,8.03
2024-01-01T13:44:14.854Z,7.30
2024-01-01T13:46:41.948Z,7.40
2024-01-01T13:49:09.000Z,7.03
2024-01-01T13:51:36.023Z,7.00
2024-01-01T13:54:02.947Z,9.03
2024-01-01T13:56:29.911Z,6.37
2024-01-01T13:58:56.853Z,6.07
2024-01-01T14:01:23.852Z,6.70
2024-01-01T14:03:51.240Z,5.90
2024-01-01T14:06:18.251Z,6.90
2024-01-01T14:08:45.187Z,8.17
2024-01-01T14:11:12.164Z,8.80
2024-01-01T14:13:39.085Z,8.53
2024-01-01T14:16:06.245Z,8.43
2024-01-01T14:18:33.344Z,8.23
2024-01-01T14:21:00.304Z,8.50
2024-01-01T14:23:27.246Z,7.70
2024-01-01T14:25:54.287Z,8.63
2024-01-01T14:28:21.251Z,7.90
2024-01-01T14:30:52.742Z,8.37
2024-01-01T14:33:21.058Z,6.60
2024-01-01T14:35:48.195Z,9.07
2024-01-01T14:38:15.229Z,11.43
2024-01-01T14:40:43.983Z,9.47
2024-01-01T14:43:11.220Z,10.87
2024-01-01T14:45:38.130Z,7.40
2024-01-01T14:48:05.569Z,6.60
2024-01-01T14:50:39.508Z,5.67
2024-01-01T14:53:07.706Z,5.70
2024-01-01T14:55:36.510Z,6.07
2024-01-01T14:58:03.528Z,5.83
2024-01-01T15:00:31.105Z,5.80
2024-01-01T15:02:58.306Z,6.67
2024-01-01T15:05:27.082Z,6.33
2024-01-01T15:07:54.129Z,7.63
2024-01-01T15:10:21.230Z,6.50
2024-01-01T15:12:48.145Z,5.60
2024-01-01T15:15:15.314Z,7.03
2024-01-01T15:17:42.627Z,6.40
2024-01-01T15:20:11.170Z,7.53
2024-01-01T15:22:38.104Z,6.57
2024-01-01T15:25:05.698Z,6.77
2024-01-01T15:27:32.592Z,8.27
2024-01-01T15:29:59.600Z,9.50
2024-01-01T15:32:26.506Z,7.60
2024-01-01T15:34:53.457Z,8.93
2024-01-01T15:37:20.839Z,8.03
2024-01-01T15:39:47.748Z,8.67
2024-01-01T15:42:14.672Z,7.20
2024-01-01T15:44:41.574Z,7.57
2024-01-01T15:47:08.515Z,6.07
2024-01-01T15:49:36.014Z,5.97
2024-01-01T15:52:07.605Z,6.20
2024-01-01T15:54:38.625Z,6.40
2024-01-01T15:57:06.230Z,6.10
2024-01-01T15:59:33.465Z,6.13
2024-01-01T16:02:00.423Z,7.00
2024-01-01T16:04:27.410Z,5.67
2024-01-01T16:06:54.368Z,5.87
2024-01-01T16:09:21.861Z,5.93
2024-01-01T16:11:48.828Z,5.57
2024-01-01T16:14:15.880Z,5.80
2024-01-01T16:16:42.823Z,6.90
2024-01-01T16:19:17.414Z,5.20
2024-01-01T16:21:52.574Z,6.43
2024-01-01T16:24:19.533Z,7.20
2024-01-01T16:26:47.424Z,7.90
2024-01-01T16:29:17.035Z,6.17
2024-01-01T16:31:44.777Z,5.30
2024-01-01T16:34:12.030Z,5.50
2024-01-01T16:36:38.946Z,4.83
2024-01-01T16:39:05.879Z,5.67
2024-01-01T16:41:32.844Z,5.60
2024-01-01T16:43:59.818Z,4.63
2024-01-01T16:46:26.725Z,5.30
2024-01-01T16:48:53.721Z,8.77
2024-01-01T16:51:20.653Z,10.33
2024-01-01T16:53:47.659Z,7.70
2024-01-01T16:56:14.568Z,6.20
2024-01-01T16:58:41.476Z,5.37
2024-01-01T17:01:08.405Z,5.43
2024-01-01T17:03:35.460Z,7.83
2024-01-01T17:06:02.592Z,6.10
2024-01-01T17:08:31.107Z,5.40
2024-01-01T17:10:58.082Z,4.83
2024-01-01T17:13:25.750Z,5.03
2024-01-01T17:15:52.673Z,4.90
2024-01-01T17:18:19.757Z,5.50
2024-01-01T17:20:46.704Z,4.03
2024-01-01T17:23:13.919Z,4.53
2024-01-01T17:25:41.038Z,4.97
2024-01-01T17:28:07.937Z,4.53
2024-01-01T17:30:34.905Z,4.00
2024-01-01T17:33:02.470Z,4.43
2024-01-01T17:35:29.837Z,4.37
2024-01-01T17:37:57.010Z,4.75
2024-01-01T17:40:24.458Z,4.93
2024-01-01T17:42:51.401Z,4.60
2024-01-01T17:45:18.381Z,4.20
2024-01-01T17:47:45.378Z,4.00
2024-01-01T17:50:12.651Z,3.70
2024-01-01T17:52:39.580Z,4.67
2024-01-01T17:55:08.198Z,4.20
2024-01-01T17:57:35.098Z,4.23
2024-01-01T18:00:02.067Z,3.80
2024-01-01T18:02:29.129Z,4.50
2024-01-01T18:04:56.327Z,4.10
2024-01-01T18:07:23.702Z,4.27
2024-01-01T18:09:50.656Z,3.90
2024-01-01T18:12:17.630Z,3.23
2024-01-01T18:14:44.588Z,3.70
2024-01-01T18:17:11.593Z,3.43
2024-01-01T18:19:38.538Z,3.90
2024-01-01T18:22:05.507Z,3.20
2024-01-01T18:24:33.923Z,3.10
2024-01-01T18:27:00.848Z,3.43
2024-01-01T18:29:27.914Z,3.87
2024-01-01T18:31:54.958Z,3.40
2024-01-01T18:34:21.925Z,3.63
2024-01-01T18:36:48.866Z,3.43
2024-01-01T18:39:15.800Z,3.30
2024-01-01T18:41:43.923Z,2.70
2024-01-01T18:44:12.472Z,3.33
2024-01-01T18:46:40.041Z,3.83
2024-01-01T18:49:07.615Z,3.87
2024-01-01T18:51:34.907Z,3.57
2024-01-01T18:54:01.929Z,3.97
2024-01-01T18:56:28.934Z,3.57
2024-01-01T18:58:55.938Z,3.90
2024-01-01T19:01:22.852Z,3.23
2024-01-01T19:03:49.847Z,4.33
2024-01-01T19:06:18.453Z,3.87
2024-01-01T19:08:46.321Z,3.73
2024-01-01T19:11:14.008Z,3.17
2024-01-01T19:13:41.285Z,4.30
2024-01-01T19:16:14.769Z,3.07
2024-01-01T19:18:43.892Z,3.47
2024-01-01T19:21:10.950Z,3.23
2024-01-01T19:23:43.923Z,3.47
2024-01-01T19:26:10.858Z,3.47
2024-01-01T19:28:38.436Z,3.70
2024-01-01T19:31:05.405Z,3.30
2024-01-01T19:33:32.386Z,3.70
2024-01-01T19:35:59.649Z,3.97
2024-01-01T19:38:27.288Z,4.07
2024-01-01T19:40:54.678Z,2.90
2024-01-01T19:43:21.674Z,3.97
2024-01-01T19:45:48.591Z,3.43
2024-01-01T19:48:15.549Z,3.90
2024-01-01T19:50:42.519Z,4.03
2024-01-01T19:53:20.471Z,2.80
2024-01-01T19:55:54.919Z,4.53
2024-01-01T19:58:24.145Z,3.00
2024-01-01T20:00:51.397Z,2.97
2024-01-01T20:03:18.442Z,3.47
2024-01-01T20:05:45.432Z,4.50
2024-01-01T20:08:12.443Z,3.70
2024-01-01T20:10:39.370Z,3.60
2024-01-01T20:13:06.841Z,2.90
2024-01-01T20:15:33.955Z,3.40
2024-01-01T20:18:01.905Z,3.43
2024-01-01T20:20:28.962Z,3.63
2024-01-01T20:22:56.217Z,3.23
2024-01-01T20:25:23.194Z,3.20
2024-01-01T20:27:50.166Z,2.90
2024-01-01T20:30:17.168Z,3.47
2024-01-01T20:32:44.268Z,3.80
2024-01-01T20:35:11.421Z,3.43
2024-01-01T20:37:39.637Z,2.90
2024-01-01T20:40:07.321Z,3.33
2024-01-01T20:42:36.114Z,3.70
2024-01-01T20:45:04.210Z,3.17
2024-01-01T20:47:31.490Z,2.93
2024-01-01T20:49:58.502Z,3.50
2024-01-01T20:52:28.276Z,3.30
2024-01-01T20:54:57.277Z,3.80
2024-01-01T20:57:24.679Z,3.30
2024-01-01T20:59:51.889Z,3.73
2024-01-01T21:02:19.420Z,3.23
2024-01-01T21:04:46.687Z,3.10
2024-01-01T21:07:14.306Z,2.40
2024-01-01T21:09:42.160Z,3.17
2024-01-01T21:12:09.298Z,3.17
2024-01-01T21:14:36.561Z,3.10
2024-01-01T21:17:03.646Z,2.90
2024-01-01T21:19:30.678Z,2.93
2024-01-01T21:21:57.608Z,3.50
2024-01-01T21:24:24.515Z,3.00
2024-01-01T21:26:51.422Z,3.50
2024-01-01T21:29:18.357Z,2.80
2024-01-01T21:31:45.974Z,3.83
2024-01-01T21:34:12.924Z,3.00
2024-01-01T21:36:39.995Z,2.70
2024-01-01T21:39:08.043Z,3.03
2024-01-01T21:41:35.540Z,2.90
2024-01-01T21:44:04.177Z,3.13
2024-01-01T21:46:31.180Z,3.10
2024-01-01T21:48:58.277Z,3.20
2024-01-01T21:51:25.247Z,3.20
2024-01-01T21:53:52.118Z,3.07
2024-01-01T21:56:21.154Z,3.40
2024-01-01T21:58:49.716Z,2.97
2024-01-01T22:01:16.635Z,3.40
2024-01-01T22:03:43.582Z,3.00
2024-01-01T22:06:10.661Z,2.20
2024-01-01T22:08:39.041Z,3.27
2024-01-01T22:11:06.226Z,2.90
2024-01-01T22:13:33.129Z,2.93
2024-01-01T22:16:00.036Z,3.43
2024-01-01T22:18:27.080Z,2.77
2024-01-01T22:20:54.051Z,3.20
2024-01-01T22:23:21.064Z,3.20
2024-01-01T22:25:48.087Z,2.77
2024-01-01T22:28:15.002Z,3.33
2024-01-01T22:30:41.950Z,3.07
2024-01-01T22:33:09.212Z,3.33
2024-01-01T22:35:36.409Z,3.10
2024-01-01T22:38:03.486Z,4.90
2024-01-01T22:40:30.536Z,2.70
2024-01-01T22:42:57.730Z,2.70
2024-01-01T22:45:24.776Z,2.83
2024-01-01T22:47:53.395Z,3.20
2024-01-01T22:50:20.742Z,2.93
2024-01-01T22:52:47.781Z,2.50
2024-01-01T22:55:14.726Z,3.23
2024-01-01T22:57:41.611Z,3.33
2024-01-01T23:00:21.065Z,2.63
2024-01-01T23:02:48.809Z,2.77
2024-01-01T23:05:19.790Z,2.80
2024-01-01T23:07:47.806Z,3.20
2024-01-01T23:10:21.785Z,2.90
2024-01-01T23:12:49.412Z,2.60
2024-01-01T23:15:16.631Z,2.37
2024-01-01T23:17:43.731Z,3.30
2024-01-01T23:20:11.368Z,3.33
2024-01-01T23:22:38.761Z,2.73
2024-01-01T23:25:06.216Z,3.03
2024-01-01T23:27:33.111Z,2.87
2024-01-01T23:30:00.057Z,3.20
2024-01-01T23:32:27.138Z,3.30
2024-01-01T23:34:54.389Z,2.90
2024-01-01T23:37:21.495Z,2.87
2024-01-01T23:39:48.397Z,2.43
2024-01-01T23:42:15.302Z,2.60
2024-01-01T23:44:42.206Z,2.90
2024-01-01T23:47:09.150Z,2.80
2024-01-01T23:49:36.204Z,2.57
2024-01-01T23:52:03.322Z,3.27
2024-01-01T23:54:30.238Z,2.80
2024-01-01T23:56:57.145Z,2.70
2024-01-01T23:59:24.832Z,2.57
